createdAt,value
2022-10-23T00:02:35.143Z,78.82
2022-10-23T00:05:18.569Z,78.67
2022-10-23T00:08:02.817Z,78.70
2022-10-23T00:10:45.946Z,78.71
2022-10-23T00:13:28.847Z,78.67
2022-10-23T00:16:12.594Z,78.71
2022-10-23T00:18:56.838Z,78.62
2022-10-23T00:21:39.892Z,78.47
2022-10-23T00:24:22.817Z,78.52
2022-10-23T00:27:05.842Z,78.40
2022-10-23T00:29:48.789Z,78.61
2022-10-23T00:35:16.992Z,78.73
2022-10-23T00:37:59.931Z,78.78
2022-10-23T00:40:44.921Z,78.63
2022-10-23T00:43:30.170Z,78.80
2022-10-23T00:46:13.053Z,78.77
2022-10-23T00:48:56.126Z,78.78
2022-10-23T00:51:44.299Z,78.87
2022-10-23T00:54:30.833Z,78.81
2022-10-23T00:57:15.869Z,78.71
2022-10-23T00:59:58.842Z,78.91
2022-10-23T01:02:42.160Z,79.18
2022-10-23T01:05:34.010Z,79.25
2022-10-23T01:08:29.003Z,79.59
2022-10-23T01:11:18.991Z,79.65
2022-10-23T01:14:07.522Z,79.90
2022-10-23T01:17:01.744Z,80.01
2022-10-23T01:19:57.167Z,80.02
2022-10-23T01:23:06.620Z,80.33
2022-10-23T01:26:03.665Z,80.38
2022-10-23T01:28:51.795Z,80.14
2022-10-23T01:31:40.547Z,79.97
2022-10-23T01:34:28.838Z,80.09
2022-10-23T01:37:15.254Z,79.89
2022-10-23T01:40:04.395Z,79.88
2022-10-23T01:42:53.394Z,80.06
2022-10-23T01:45:44.105Z,80.06
2022-10-23T01:48:33.557Z,79.93
2022-10-23T01:51:17.829Z,79.85
2022-10-23T01:54:02.191Z,79.79
2022-10-23T01:56:49.741Z,79.62
2022-10-23T01:59:40.784Z,79.75
2022-10-23T02:02:28.702Z,79.67
2022-10-23T02:05:15.989Z,79.95
2022-10-23T02:07:59.440Z,79.96
2022-10-23T02:10:48.984Z,80.07
2022-10-23T02:13:36.180Z,80.07
2022-10-23T02:16:27.228Z,79.99
2022-10-23T02:19:20.498Z,80.21
2022-10-23T02:22:09.186Z,80.31
2022-10-23T02:24:57.220Z,80.60
2022-10-23T02:27:44.500Z,80.38
2022-10-23T02:30:30.221Z,80.25
2022-10-23T02:33:27.419Z,80.15
2022-10-23T02:36:12.299Z,79.92
2022-10-23T02:38:55.261Z,79.93
2022-10-23T02:41:48.111Z,80.10
2022-10-23T02:44:41.807Z,80.38
2022-10-23T02:47:36.442Z,80.53
2022-10-23T02:50:27.078Z,80.24
2022-10-23T02:53:19.234Z,80.62
2022-10-23T02:56:08.497Z,80.63
2022-10-23T02:59:00.071Z,80.58
2022-10-23T03:01:50.783Z,80.66
2022-10-23T03:04:34.607Z,80.77
2022-10-23T03:07:20.520Z,80.81
2022-10-23T03:10:06.324Z,80.82
2022-10-23T03:12:49.829Z,80.74
2022-10-23T03:15:33.040Z,80.52
2022-10-23T03:18:15.950Z,80.57
2022-10-23T03:21:04.087Z,80.35
2022-10-23T03:23:49.770Z,80.22
2022-10-23T03:26:38.491Z,80.11
2022-10-23T03:29:21.888Z,79.95
2022-10-23T03:32:06.482Z,79.99
2022-10-23T03:34:49.322Z,79.94
2022-10-23T03:37:32.511Z,79.87
2022-10-23T03:40:17.046Z,79.78
2022-10-23T03:43:02.176Z,79.63
2022-10-23T03:45:45.838Z,79.72
2022-10-23T03:48:32.694Z,79.75
2022-10-23T03:51:15.622Z,79.92
2022-10-23T03:53:58.581Z,79.91
2022-10-23T03:56:41.659Z,79.92
2022-10-23T03:59:26.394Z,80.11
2022-10-23T04:02:09.621Z,79.97
2022-10-23T04:04:52.559Z,79.96
2022-10-23T04:07:35.544Z,80.03
2022-10-23T04:10:19.328Z,79.76
2022-10-23T04:13:02.255Z,79.79
2022-10-23T04:15:51.234Z,79.67
2022-10-23T04:18:34.152Z,79.58
2022-10-23T04:21:17.212Z,79.64
2022-10-23T04:24:00.120Z,79.48
2022-10-23T04:26:43.200Z,79.43
2022-10-23T04:29:28.522Z,79.50
2022-10-23T04:32:12.757Z,79.34
2022-10-23T04:34:55.755Z,79.37
2022-10-23T04:37:39.101Z,79.28
2022-10-23T04:40:22.649Z,79.06
2022-10-23T04:43:08.400Z,79.06
2022-10-23T04:45:54.318Z,78.98
2022-10-23T04:48:38.629Z,78.77
2022-10-23T04:51:39.906Z,78.74
2022-10-23T04:54:54.680Z,78.56
2022-10-23T04:57:47.657Z,78.48
2022-10-23T05:00:32.076Z,78.48
2022-10-23T05:03:15.740Z,78.39
2022-10-23T05:06:00.411Z,78.37
2022-10-23T05:09:05.803Z,78.33
2022-10-23T05:12:01.678Z,78.52
2022-10-23T05:14:44.598Z,78.38
2022-10-23T05:17:33.504Z,78.21
2022-10-23T05:20:22.737Z,77.98
2022-10-23T05:23:09.803Z,78.04
2022-10-23T05:25:52.904Z,77.74
2022-10-23T05:28:35.796Z,77.67
2022-10-23T05:31:21.727Z,77.50
2022-10-23T05:34:09.880Z,77.39
2022-10-23T05:36:58.881Z,77.29
2022-10-23T05:39:43.668Z,77.13
2022-10-23T05:42:29.672Z,77.15
2022-10-23T05:45:13.692Z,77.12
2022-10-23T05:48:29.715Z,76.84
2022-10-23T05:51:37.167Z,76.79
2022-10-23T05:54:46.344Z,76.59
2022-10-23T05:57:53.831Z,76.41
2022-10-23T06:00:48.128Z,76.30
2022-10-23T06:03:51.218Z,76.28
2022-10-23T06:06:37.341Z,76.11
2022-10-23T06:09:20.322Z,76.16
2022-10-23T06:12:06.537Z,75.64
2022-10-23T06:14:51.034Z,75.74
2022-10-23T06:17:36.259Z,75.63
2022-10-23T06:20:19.863Z,75.52
2022-10-23T06:23:14.325Z,75.62
2022-10-23T06:26:32.493Z,75.72
2022-10-23T06:29:23.932Z,75.67
2022-10-23T06:32:06.866Z,75.15
2022-10-23T06:34:50.239Z,75.38
2022-10-23T06:37:35.158Z,75.20
2022-10-23T06:40:39.107Z,75.21
2022-10-23T06:43:23.642Z,75.20
2022-10-23T06:46:30.118Z,75.08
2022-10-23T06:49:31.298Z,74.90
2022-10-23T06:52:41.737Z,75.00
2022-10-23T06:55:19.878Z,74.98
2022-10-23T06:58:02.770Z,74.91
2022-10-23T07:00:46.023Z,74.79
2022-10-23T07:03:30.490Z,74.65
2022-10-23T07:06:14.332Z,74.36
2022-10-23T07:08:57.277Z,74.33
2022-10-23T07:11:58.397Z,74.06
2022-10-23T07:14:52.117Z,73.94
2022-10-23T07:17:35.014Z,73.83
2022-10-23T07:20:20.588Z,73.74
2022-10-23T07:23:04.947Z,73.84
2022-10-23T07:25:52.875Z,73.59
2022-10-23T07:28:39.190Z,73.70
2022-10-23T07:31:40.996Z,73.60
2022-10-23T07:34:58.883Z,73.63
2022-10-23T07:37:48.607Z,73.62
2022-10-23T07:40:31.763Z,73.07
2022-10-23T07:43:14.767Z,72.85
2022-10-23T07:45:57.829Z,72.78
2022-10-23T07:48:47.084Z,72.55
2022-10-23T07:51:31.162Z,72.43
2022-10-23T07:54:17.462Z,71.80
2022-10-23T07:57:29.379Z,72.10
2022-10-23T08:03:20.557Z,71.91
2022-10-23T08:06:04.107Z,71.51
2022-10-23T08:08:47.360Z,70.25
2022-10-23T08:11:35.451Z,69.56
2022-10-23T08:14:20.483Z,70.00
2022-10-23T08:17:05.326Z,70.01
2022-10-23T08:20:07.937Z,70.09
2022-10-23T08:22:56.704Z,69.44
2022-10-23T08:25:42.261Z,69.14
2022-10-23T08:28:28.033Z,68.67
2022-10-23T08:31:14.396Z,68.45
2022-10-23T08:34:04.974Z,68.61
2022-10-23T08:36:48.448Z,68.55
2022-10-23T08:39:31.373Z,68.02
2022-10-23T08:42:32.019Z,68.22
2022-10-23T08:45:31.416Z,67.87
2022-10-23T08:48:34.659Z,67.94
2022-10-23T08:51:43.817Z,67.42
2022-10-23T08:54:32.904Z,66.90
2022-10-23T08:57:18.225Z,66.96
2022-10-23T09:00:02.538Z,65.89
2022-10-23T09:02:48.773Z,65.43
2022-10-23T09:05:35.023Z,65.50
2022-10-23T09:08:32.002Z,65.08
2022-10-23T09:11:22.288Z,65.10
2022-10-23T09:14:41.911Z,63.65
2022-10-23T09:17:27.507Z,64.38
2022-10-23T09:20:20.748Z,63.98
2022-10-23T09:23:08.091Z,64.17
2022-10-23T09:25:56.812Z,64.47
2022-10-23T09:28:47.319Z,63.98
2022-10-23T09:31:30.208Z,63.85
2022-10-23T09:34:21.230Z,63.62
2022-10-23T09:37:21.649Z,62.59
2022-10-23T09:40:18.998Z,62.50
2022-10-23T09:43:04.815Z,61.78
2022-10-23T09:45:58.669Z,61.59
2022-10-23T09:48:42.237Z,61.53
2022-10-23T09:51:25.444Z,61.50
2022-10-23T09:54:17.955Z,61.03
2022-10-23T09:57:07.141Z,60.43
2022-10-23T09:59:54.019Z,60.23
2022-10-23T10:02:37.994Z,60.32
2022-10-23T10:05:42.247Z,59.23
2022-10-23T10:08:41.680Z,59.54
2022-10-23T10:11:35.125Z,59.57
2022-10-23T10:14:49.085Z,59.27
2022-10-23T10:17:39.189Z,59.28
2022-10-23T10:20:44.244Z,58.78
2022-10-23T10:23:35.907Z,59.24
2022-10-23T10:26:34.436Z,58.54
2022-10-23T10:29:29.995Z,58.62
2022-10-23T10:32:27.407Z,58.51
2022-10-23T10:35:21.049Z,57.61
2022-10-23T10:38:24.146Z,58.03
2022-10-23T10:41:37.840Z,57.77
2022-10-23T10:44:43.688Z,57.48
2022-10-23T10:47:34.381Z,58.21
2022-10-23T10:50:23.595Z,58.26
2022-10-23T10:53:25.988Z,57.96
2022-10-23T10:56:14.561Z,57.98
2022-10-23T10:59:02.863Z,58.09
2022-10-23T11:01:51.917Z,58.28
2022-10-23T11:04:40.844Z,58.63
2022-10-23T11:07:27.912Z,58.38
2022-10-23T11:10:17.574Z,58.47
2022-10-23T11:13:00.934Z,57.82
2022-10-23T11:15:45.856Z,57.38
2022-10-23T11:18:31.614Z,56.86
2022-10-23T11:21:27.778Z,56.67
2022-10-23T11:24:50.141Z,54.99
2022-10-23T11:27:48.565Z,56.13
2022-10-23T11:30:36.921Z,54.98
2022-10-23T11:33:48.075Z,53.61
2022-10-23T11:36:44.006Z,53.59
2022-10-23T11:39:30.098Z,52.87
2022-10-23T11:42:32.818Z,52.73
2022-10-23T11:45:33.206Z,52.92
2022-10-23T11:48:24.479Z,52.80
2022-10-23T11:51:30.857Z,51.80
2022-10-23T11:54:27.235Z,52.23
2022-10-23T11:57:13.063Z,51.25
2022-10-23T11:59:57.509Z,52.12
2022-10-23T12:02:43.097Z,51.95
2022-10-23T12:05:33.352Z,51.22
2022-10-23T12:08:23.680Z,49.78
2022-10-23T12:11:06.823Z,50.12
2022-10-23T12:13:49.682Z,51.02
2022-10-23T12:16:36.715Z,50.90
2022-10-23T12:19:23.262Z,50.91
2022-10-23T12:22:12.360Z,51.38
2022-10-23T12:25:04.330Z,50.48
2022-10-23T12:27:53.888Z,50.69
2022-10-23T12:30:44.331Z,50.26
2022-10-23T12:33:33.885Z,48.20
2022-10-23T12:36:41.205Z,47.68
2022-10-23T12:39:28.079Z,48.08
2022-10-23T12:42:21.875Z,47.72
2022-10-23T12:45:16.604Z,48.12
2022-10-23T12:47:59.523Z,49.06
2022-10-23T12:50:50.362Z,48.72
2022-10-23T12:53:33.310Z,48.61
2022-10-23T12:56:17.025Z,48.66
2022-10-23T12:59:02.247Z,47.76
2022-10-23T13:01:49.119Z,47.84
2022-10-23T13:04:36.530Z,48.03
2022-10-23T13:07:21.340Z,46.82
2022-10-23T13:10:06.757Z,47.85
2022-10-23T13:12:56.019Z,47.93
2022-10-23T13:15:41.874Z,45.69
2022-10-23T13:18:24.731Z,46.80
2022-10-23T13:21:17.698Z,46.85
2022-10-23T13:24:00.720Z,47.10
2022-10-23T13:26:45.333Z,47.45
2022-10-23T13:29:29.909Z,46.28
2022-10-23T13:32:23.983Z,46.84
2022-10-23T13:35:23.343Z,47.47
2022-10-23T13:38:09.446Z,47.97
2022-10-23T13:40:57.592Z,48.63
2022-10-23T13:43:41.056Z,48.83
2022-10-23T13:46:26.039Z,49.21
2022-10-23T13:49:10.542Z,49.12
2022-10-23T13:51:55.324Z,49.93
2022-10-23T13:54:38.039Z,49.90
2022-10-23T13:57:20.870Z,49.93
2022-10-23T14:00:03.819Z,50.72
2022-10-23T14:05:43.685Z,50.33
2022-10-23T14:08:26.541Z,50.08
2022-10-23T14:11:10.753Z,50.59
2022-10-23T14:13:53.706Z,50.13
2022-10-23T14:16:36.601Z,50.72
2022-10-23T14:19:19.467Z,50.76
2022-10-23T14:22:03.657Z,51.53
2022-10-23T14:24:46.471Z,51.56
2022-10-23T14:27:29.907Z,51.70
2022-10-23T14:30:13.379Z,52.07
2022-10-23T14:32:56.308Z,52.05
2022-10-23T14:35:40.986Z,52.15
2022-10-23T14:38:25.460Z,52.35
2022-10-23T14:41:12.889Z,52.44
2022-10-23T14:43:56.011Z,53.05
2022-10-23T14:46:39.183Z,52.69
2022-10-23T14:49:22.228Z,53.11
2022-10-23T14:52:05.310Z,52.73
2022-10-23T14:54:49.693Z,53.22
2022-10-23T14:57:32.504Z,53.12
2022-10-23T15:00:15.805Z,52.69
2022-10-23T15:02:58.659Z,53.06
2022-10-23T15:05:42.888Z,53.19
2022-10-23T15:08:25.778Z,53.29
2022-10-23T15:11:12.548Z,52.70
2022-10-23T15:13:56.531Z,52.60
2022-10-23T15:16:42.127Z,53.19
2022-10-23T15:19:25.469Z,53.17
2022-10-23T15:22:08.341Z,52.98
2022-10-23T15:24:52.136Z,53.22
2022-10-23T15:27:36.420Z,53.14
2022-10-23T15:30:19.503Z,53.63
2022-10-23T15:33:02.420Z,53.27
2022-10-23T15:35:45.300Z,53.23
2022-10-23T15:38:28.216Z,53.76
2022-10-23T15:41:16.634Z,53.51
2022-10-23T15:44:01.978Z,53.69
2022-10-23T15:46:44.902Z,53.84
2022-10-23T15:49:30.401Z,53.78
2022-10-23T15:52:13.309Z,54.07
2022-10-23T15:54:56.175Z,53.78
2022-10-23T15:57:39.124Z,54.08
2022-10-23T16:00:23.739Z,53.75
2022-10-23T16:03:06.642Z,53.75
2022-10-23T16:05:49.802Z,53.31
2022-10-23T16:08:32.694Z,53.45
2022-10-23T16:11:17.935Z,53.02
2022-10-23T16:14:01.652Z,53.11
2022-10-23T16:16:45.982Z,53.72
2022-10-23T16:19:28.814Z,53.75
2022-10-23T16:22:11.706Z,53.11
2022-10-23T16:24:54.603Z,53.12
2022-10-23T16:27:37.440Z,53.03
2022-10-23T16:30:22.461Z,53.39
2022-10-23T16:33:06.646Z,53.36
2022-10-23T16:35:49.752Z,53.24
2022-10-23T16:38:38.155Z,53.28
2022-10-23T16:41:21.166Z,53.21
2022-10-23T16:44:16.747Z,53.15
2022-10-23T16:47:19.962Z,53.21
2022-10-23T16:50:04.587Z,52.88
2022-10-23T16:52:49.055Z,53.16
2022-10-23T16:55:33.988Z,52.77
2022-10-23T16:58:16.890Z,52.50
2022-10-23T17:01:01.831Z,52.34
2022-10-23T17:03:48.207Z,52.36
2022-10-23T17:06:33.896Z,51.90
2022-10-23T17:09:19.325Z,51.55
2022-10-23T17:12:02.547Z,51.55
2022-10-23T17:14:45.407Z,51.46
2022-10-23T17:17:28.322Z,51.17
2022-10-23T17:20:12.501Z,50.86
2022-10-23T17:22:56.686Z,50.71
2022-10-23T17:25:41.368Z,50.54
2022-10-23T17:28:24.240Z,49.19
2022-10-23T17:31:14.043Z,49.85
2022-10-23T17:33:59.581Z,49.86
2022-10-23T17:36:45.516Z,49.62
2022-10-23T17:39:30.611Z,49.51
2022-10-23T17:42:13.503Z,48.64
2022-10-23T17:44:56.546Z,48.86
2022-10-23T17:47:41.048Z,48.89
2022-10-23T17:50:24.180Z,48.71
2022-10-23T17:53:07.542Z,47.99
2022-10-23T17:55:51.890Z,47.83
2022-10-23T17:58:35.145Z,47.54
2022-10-23T18:01:24.358Z,46.56
2022-10-23T18:04:08.804Z,46.85
2022-10-23T18:06:53.693Z,47.07
2022-10-23T18:09:36.425Z,44.72
2022-10-23T18:12:20.717Z,46.81
2022-10-23T18:15:03.787Z,46.52
2022-10-23T18:17:47.117Z,46.54
2022-10-23T18:20:30.349Z,46.48
2022-10-23T18:23:13.259Z,46.51
2022-10-23T18:25:56.718Z,46.32
2022-10-23T18:28:40.969Z,46.38
2022-10-23T18:31:25.327Z,45.91
2022-10-23T18:34:13.534Z,45.52
2022-10-23T18:36:56.654Z,45.90
2022-10-23T18:39:39.493Z,45.29
2022-10-23T18:42:22.440Z,45.46
2022-10-23T18:45:07.926Z,45.30
2022-10-23T18:47:50.813Z,45.64
2022-10-23T18:50:37.296Z,44.90
2022-10-23T18:53:20.308Z,44.93
2022-10-23T18:56:03.224Z,45.23
2022-10-23T18:58:46.071Z,45.06
2022-10-23T19:01:31.327Z,44.63
2022-10-23T19:04:16.123Z,44.66
2022-10-23T19:06:58.984Z,44.75
2022-10-23T19:09:42.774Z,44.69
2022-10-23T19:12:25.658Z,44.76
2022-10-23T19:15:10.227Z,44.57
2022-10-23T19:17:54.566Z,44.57
2022-10-23T19:20:38.261Z,44.66
2022-10-23T19:23:22.249Z,44.70
2022-10-23T19:26:08.898Z,44.43
2022-10-23T19:31:36.486Z,44.45
2022-10-23T19:34:24.806Z,44.22
2022-10-23T19:37:08.092Z,44.34
2022-10-23T19:39:51.160Z,44.40
2022-10-23T19:42:34.296Z,44.13
2022-10-23T19:45:18.289Z,44.15
2022-10-23T19:48:01.243Z,44.10
2022-10-23T19:50:45.475Z,43.80
2022-10-23T19:53:28.382Z,43.85
2022-10-23T19:56:12.598Z,43.77
2022-10-23T19:58:56.801Z,43.63
2022-10-23T20:01:43.808Z,43.89
2022-10-23T20:04:29.799Z,43.65
2022-10-23T20:07:14.383Z,43.58
2022-10-23T20:09:57.324Z,43.71
2022-10-23T20:12:44.456Z,43.99
2022-10-23T20:15:37.148Z,43.80
2022-10-23T20:18:20.324Z,43.55
2022-10-23T20:21:03.539Z,43.82
2022-10-23T20:23:48.797Z,43.39
2022-10-23T20:26:31.654Z,43.49
2022-10-23T20:29:14.954Z,43.62
2022-10-23T20:31:57.971Z,43.27
2022-10-23T20:34:41.036Z,43.27
2022-10-23T20:37:23.954Z,43.57
2022-10-23T20:40:09.163Z,43.76
2022-10-23T20:42:52.110Z,43.61
2022-10-23T20:45:35.442Z,43.33
2022-10-23T20:48:18.372Z,43.58
2022-10-23T20:51:03.651Z,43.50
2022-10-23T20:53:47.841Z,43.27
2022-10-23T20:56:34.292Z,43.29
2022-10-23T20:59:20.103Z,43.68
2022-10-23T21:02:03.180Z,43.72
2022-10-23T21:04:47.641Z,43.64
2022-10-23T21:07:30.486Z,43.91
2022-10-23T21:10:13.360Z,43.90
2022-10-23T21:12:57.606Z,44.13
2022-10-23T21:15:40.407Z,44.25
2022-10-23T21:18:33.819Z,44.19
2022-10-23T21:21:27.994Z,44.35
2022-10-23T21:24:14.971Z,44.47
2022-10-23T21:26:57.786Z,44.46
2022-10-23T21:29:42.074Z,44.77
2022-10-23T21:32:24.886Z,44.73
2022-10-23T21:35:09.175Z,44.68
2022-10-23T21:37:52.039Z,45.09
2022-10-23T21:40:34.959Z,45.28
2022-10-23T21:43:18.207Z,45.45
2022-10-23T21:46:06.032Z,45.65
2022-10-23T21:48:49.361Z,45.75
2022-10-23T21:51:35.273Z,45.68
2022-10-23T21:54:18.176Z,45.92
2022-10-23T21:57:03.224Z,46.12
2022-10-23T21:59:46.453Z,46.51
2022-10-23T22:02:30.767Z,46.38
2022-10-23T22:05:13.680Z,46.55
2022-10-23T22:07:56.590Z,46.60
2022-10-23T22:10:39.640Z,46.86
2022-10-23T22:13:22.558Z,47.18
2022-10-23T22:16:05.686Z,47.14
2022-10-23T22:18:50.101Z,47.67
2022-10-23T22:21:32.983Z,47.30
2022-10-23T22:24:17.530Z,47.69
2022-10-23T22:27:00.699Z,47.48
2022-10-23T22:29:43.580Z,47.76
2022-10-23T22:32:26.393Z,48.08
2022-10-23T22:35:10.840Z,48.36
2022-10-23T22:37:53.727Z,48.28
2022-10-23T22:40:37.599Z,48.29
2022-10-23T22:43:20.477Z,48.67
2022-10-23T22:46:05.387Z,48.86
2022-10-23T22:48:48.583Z,48.87
2022-10-23T22:51:32.825Z,49.11
2022-10-23T22:54:15.654Z,49.41
2022-10-23T22:56:58.812Z,49.54
2022-10-23T22:59:41.696Z,49.50
2022-10-23T23:02:24.619Z,49.87
2022-10-23T23:05:08.097Z,50.01
2022-10-23T23:07:52.343Z,50.03
2022-10-23T23:10:35.244Z,50.28
2022-10-23T23:13:18.128Z,50.20
2022-10-23T23:16:01.338Z,50.31
2022-10-23T23:18:44.264Z,50.30
2022-10-23T23:21:28.073Z,50.26
2022-10-23T23:24:12.875Z,50.27
2022-10-23T23:26:55.599Z,50.61
2022-10-23T23:29:38.460Z,50.37
2022-10-23T23:32:21.319Z,50.31
2022-10-23T23:35:04.387Z,50.08
2022-10-23T23:37:47.360Z,50.33
2022-10-23T23:40:31.641Z,50.01
2022-10-23T23:43:14.458Z,50.30
2022-10-23T23:45:57.742Z,49.93
2022-10-23T23:48:42.335Z,49.77
2022-10-23T23:51:26.264Z,50.00
2022-10-23T23:54:09.138Z,49.69
2022-10-23T23:56:53.401Z,49.58
2022-10-23T23:59:40.414Z,49.91
